sensor_id;sensor_type;location;lat;lon;timestamp;pressure;altitude;pressure_sealevel;temperature;humidity
65718;BME280;52445;52.466;-1.016;2023-06-14T00:00:46;100422.44;;;14.98;50.86
65718;BME280;52445;52.466;-1.016;2023-06-14T00:03:15;100417.25;;;14.95;51.05
65718;BME280;52445;52.466;-1.016;2023-06-14T00:05:44;100419.06;;;14.92;51.26
65718;BME280;52445;52.466;-1.016;2023-06-14T00:08:13;100421.69;;;14.88;51.65
65718;BME280;52445;52.466;-1.016;2023-06-14T00:10:39;100418.28;;;14.83;51.75
65718;BME280;52445;52.466;-1.016;2023-06-14T00:13:09;100416.59;;;14.79;52.53
65718;BME280;52445;52.466;-1.016;2023-06-14T00:15:36;100409.72;;;14.72;52.36
65718;BME280;52445;52.466;-1.016;2023-06-14T00:18:03;100420.22;;;14.69;52.16
65718;BME280;52445;52.466;-1.016;2023-06-14T00:20:32;100428.06;;;14.65;53.00
65718;BME280;52445;52.466;-1.016;2023-06-14T00:23:00;100422.06;;;14.60;53.03
65718;BME280;52445;52.466;-1.016;2023-06-14T00:25:27;100416.91;;;14.56;52.93
65718;BME280;52445;52.466;-1.016;2023-06-14T00:27:56;100423.88;;;14.52;52.99
65718;BME280;52445;52.466;-1.016;2023-06-14T00:30:24;100421.34;;;14.49;53.60
65718;BME280;52445;52.466;-1.016;2023-06-14T00:32:50;100419.59;;;14.48;53.32
65718;BME280;52445;52.466;-1.016;2023-06-14T00:35:18;100423.09;;;14.45;53.14
65718;BME280;52445;52.466;-1.016;2023-06-14T00:37:45;100419.66;;;14.45;53.31
65718;BME280;52445;52.466;-1.016;2023-06-14T00:40:11;100417.06;;;14.43;53.00
65718;BME280;52445;52.466;-1.016;2023-06-14T00:42:39;100418.81;;;14.41;53.69
65718;BME280;52445;52.466;-1.016;2023-06-14T00:45:06;100419.72;;;14.40;53.42
65718;BME280;52445;52.466;-1.016;2023-06-14T00:47:34;100419.72;;;14.38;53.14
65718;BME280;52445;52.466;-1.016;2023-06-14T00:50:02;100418.00;;;14.37;53.92
65718;BME280;52445;52.466;-1.016;2023-06-14T00:52:29;100413.72;;;14.33;54.05
65718;BME280;52445;52.466;-1.016;2023-06-14T00:54:56;100420.69;;;14.31;53.46
65718;BME280;52445;52.466;-1.016;2023-06-14T00:57:22;100414.66;;;14.27;53.63
65718;BME280;52445;52.466;-1.016;2023-06-14T00:59:50;100409.47;;;14.24;53.78
65718;BME280;52445;52.466;-1.016;2023-06-14T01:02:17;100408.63;;;14.21;54.05
65718;BME280;52445;52.466;-1.016;2023-06-14T01:04:47;100400.00;;;14.19;54.61
65718;BME280;52445;52.466;-1.016;2023-06-14T01:15:30;100395.00;;;14.00;54.89
65718;BME280;52445;52.466;-1.016;2023-06-14T01:17:58;100391.59;;;13.95;54.90
65718;BME280;52445;52.466;-1.016;2023-06-14T01:20:32;100396.84;;;13.88;55.06
65718;BME280;52445;52.466;-1.016;2023-06-14T01:22:59;100390.88;;;13.82;54.93
65718;BME280;52445;52.466;-1.016;2023-06-14T01:25:26;100395.28;;;13.73;55.42
65718;BME280;52445;52.466;-1.016;2023-06-14T01:27:58;100391.88;;;13.67;54.80
65718;BME280;52445;52.466;-1.016;2023-06-14T01:30:27;100394.53;;;13.62;55.67
65718;BME280;52445;52.466;-1.016;2023-06-14T01:32:55;100393.69;;;13.58;55.57
65718;BME280;52445;52.466;-1.016;2023-06-14T01:35:22;100392.00;;;13.54;56.82
65718;BME280;52445;52.466;-1.016;2023-06-14T01:37:49;100392.91;;;13.50;56.12
65718;BME280;52445;52.466;-1.016;2023-06-14T01:40:18;100400.69;;;13.47;55.97
65718;BME280;52445;52.466;-1.016;2023-06-14T01:42:47;100400.69;;;13.47;56.02
65718;BME280;52445;52.466;-1.016;2023-06-14T01:45:15;100400.75;;;13.44;56.38
65718;BME280;52445;52.466;-1.016;2023-06-14T01:47:44;100392.94;;;13.42;56.32
65718;BME280;52445;52.466;-1.016;2023-06-14T01:50:12;100388.66;;;13.40;56.73
65718;BME280;52445;52.466;-1.016;2023-06-14T01:52:40;100385.19;;;13.37;56.32
65718;BME280;52445;52.466;-1.016;2023-06-14T01:55:07;100383.47;;;13.33;56.32
65718;BME280;52445;52.466;-1.016;2023-06-14T01:57:34;100387.81;;;13.31;57.39
65718;BME280;52445;52.466;-1.016;2023-06-14T02:00:01;100387.84;;;13.30;57.57
65718;BME280;52445;52.466;-1.016;2023-06-14T02:02:27;100388.72;;;13.27;57.09
65718;BME280;52445;52.466;-1.016;2023-06-14T02:04:55;100380.09;;;13.25;56.63
65718;BME280;52445;52.466;-1.016;2023-06-14T02:07:26;100385.31;;;13.22;57.05
65718;BME280;52445;52.466;-1.016;2023-06-14T02:09:52;100387.94;;;13.19;56.76
65718;BME280;52445;52.466;-1.016;2023-06-14T02:12:19;100383.63;;;13.15;57.97
65718;BME280;52445;52.466;-1.016;2023-06-14T02:14:46;100374.13;;;13.12;56.99
65718;BME280;52445;52.466;-1.016;2023-06-14T02:17:13;100383.66;;;13.08;57.24
65718;BME280;52445;52.466;-1.016;2023-06-14T02:19:39;100375.03;;;13.06;58.03
65718;BME280;52445;52.466;-1.016;2023-06-14T02:22:06;100381.94;;;13.07;57.78
65718;BME280;52445;52.466;-1.016;2023-06-14T02:24:33;100381.97;;;13.04;57.14
65718;BME280;52445;52.466;-1.016;2023-06-14T02:27:00;100385.44;;;13.03;57.32
65718;BME280;52445;52.466;-1.016;2023-06-14T02:29:26;100391.53;;;13.02;58.44
65718;BME280;52445;52.466;-1.016;2023-06-14T02:31:53;100382.88;;;13.00;58.56
65718;BME280;52445;52.466;-1.016;2023-06-14T02:34:19;100378.56;;;12.99;57.60
65718;BME280;52445;52.466;-1.016;2023-06-14T02:36:48;100382.03;;;12.96;57.51
65718;BME280;52445;52.466;-1.016;2023-06-14T02:39:14;100379.44;;;12.95;57.93
65718;BME280;52445;52.466;-1.016;2023-06-14T02:41:41;100377.75;;;12.92;58.16
65718;BME280;52445;52.466;-1.016;2023-06-14T02:44:09;100374.28;;;12.92;58.92
65718;BME280;52445;52.466;-1.016;2023-06-14T02:46:38;100378.63;;;12.90;58.93
65718;BME280;52445;52.466;-1.016;2023-06-14T02:49:05;100385.56;;;12.88;57.83
65718;BME280;52445;52.466;-1.016;2023-06-14T02:51:31;100382.13;;;12.85;58.53
65718;BME280;52445;52.466;-1.016;2023-06-14T02:53:58;100380.38;;;12.84;57.74
65718;BME280;52445;52.466;-1.016;2023-06-14T02:56:25;100376.06;;;12.80;57.94
65718;BME280;52445;52.466;-1.016;2023-06-14T02:58:52;100379.56;;;12.76;58.90
65718;BME280;52445;52.466;-1.016;2023-06-14T03:01:19;100378.72;;;12.74;57.97
65718;BME280;52445;52.466;-1.016;2023-06-14T03:03:47;100376.97;;;12.73;58.09
65718;BME280;52445;52.466;-1.016;2023-06-14T03:06:14;100377.88;;;12.70;59.15
65718;BME280;52445;52.466;-1.016;2023-06-14T03:08:43;100371.84;;;12.67;58.69
65718;BME280;52445;52.466;-1.016;2023-06-14T03:11:10;100381.38;;;12.63;58.18
65718;BME280;52445;52.466;-1.016;2023-06-14T03:13:37;100377.94;;;12.59;59.37
65718;BME280;52445;52.466;-1.016;2023-06-14T03:16:05;100377.06;;;12.57;59.35
65718;BME280;52445;52.466;-1.016;2023-06-14T03:18:33;100374.47;;;12.56;59.00
65718;BME280;52445;52.466;-1.016;2023-06-14T03:21:02;100372.78;;;12.55;59.31
65718;BME280;52445;52.466;-1.016;2023-06-14T03:23:29;100373.66;;;12.49;58.50
65718;BME280;52445;52.466;-1.016;2023-06-14T03:25:56;100376.28;;;12.46;58.38
65718;BME280;52445;52.466;-1.016;2023-06-14T03:28:23;100377.16;;;12.42;59.49
65718;BME280;52445;52.466;-1.016;2023-06-14T03:30:50;100372.84;;;12.38;59.33
65718;BME280;52445;52.466;-1.016;2023-06-14T03:33:18;100381.53;;;12.35;59.12
65718;BME280;52445;52.466;-1.016;2023-06-14T03:35:45;100378.09;;;12.31;59.77
65718;BME280;52445;52.466;-1.016;2023-06-14T03:38:11;100373.78;;;12.27;59.88
65718;BME280;52445;52.466;-1.016;2023-06-14T03:40:38;100372.09;;;12.23;59.17
65718;BME280;52445;52.466;-1.016;2023-06-14T03:43:05;100373.81;;;12.21;58.93
65718;BME280;52445;52.466;-1.016;2023-06-14T03:45:32;100371.22;;;12.21;60.17
65718;BME280;52445;52.466;-1.016;2023-06-14T03:47:58;100373.81;;;12.19;59.90
65718;BME280;52445;52.466;-1.016;2023-06-14T03:50:27;100372.09;;;12.17;59.25
65718;BME280;52445;52.466;-1.016;2023-06-14T03:52:54;100372.97;;;12.14;59.50
65718;BME280;52445;52.466;-1.016;2023-06-14T03:55:21;100379.06;;;12.12;60.49
65718;BME280;52445;52.466;-1.016;2023-06-14T03:58:07;100385.97;;;12.10;59.88
65718;BME280;52445;52.466;-1.016;2023-06-14T04:00:34;100383.38;;;12.08;60.42
65718;BME280;52445;52.466;-1.016;2023-06-14T04:03:02;100373.88;;;12.07;60.54
65718;BME280;52445;52.466;-1.016;2023-06-14T04:05:31;100375.59;;;12.06;60.95
65718;BME280;52445;52.466;-1.016;2023-06-14T04:07:58;100372.13;;;12.04;60.62
65718;BME280;52445;52.466;-1.016;2023-06-14T04:10:25;100374.72;;;12.04;60.83
65718;BME280;52445;52.466;-1.016;2023-06-14T04:12:52;100382.50;;;12.04;60.05
65718;BME280;52445;52.466;-1.016;2023-06-14T04:15:18;100385.94;;;12.03;60.86
65718;BME280;52445;52.466;-1.016;2023-06-14T04:17:47;100379.03;;;12.02;60.00
65718;BME280;52445;52.466;-1.016;2023-06-14T04:20:14;100382.50;;;12.01;60.91
65718;BME280;52445;52.466;-1.016;2023-06-14T04:22:42;100387.69;;;12.01;61.10
65718;BME280;52445;52.466;-1.016;2023-06-14T04:25:10;100389.41;;;12.02;59.74
65718;BME280;52445;52.466;-1.016;2023-06-14T04:27:38;100385.94;;;12.03;60.57
65718;BME280;52445;52.466;-1.016;2023-06-14T04:30:05;100389.41;;;12.05;60.44
65718;BME280;52445;52.466;-1.016;2023-06-14T04:32:32;100385.97;;;12.06;60.57
65718;BME280;52445;52.466;-1.016;2023-06-14T04:35:06;100394.63;;;12.08;61.01
65718;BME280;52445;52.466;-1.016;2023-06-14T04:37:33;100389.44;;;12.12;60.37
65718;BME280;52445;52.466;-1.016;2023-06-14T04:40:00;100384.22;;;12.15;60.59
65718;BME280;52445;52.466;-1.016;2023-06-14T04:42:27;100392.88;;;12.20;60.70
65718;BME280;52445;52.466;-1.016;2023-06-14T04:44:57;100393.69;;;12.27;60.82
65718;BME280;52445;52.466;-1.016;2023-06-14T04:47:24;100394.53;;;12.33;61.32
65718;BME280;52445;52.466;-1.016;2023-06-14T04:49:57;100396.22;;;12.41;61.23
65718;BME280;52445;52.466;-1.016;2023-06-14T04:52:24;100399.66;;;12.46;61.15
65718;BME280;52445;52.466;-1.016;2023-06-14T04:54:52;100400.50;;;12.54;61.20
65718;BME280;52445;52.466;-1.016;2023-06-14T04:57:21;100391.81;;;12.60;62.21
65718;BME280;52445;52.466;-1.016;2023-06-14T04:59:49;100394.34;;;12.66;61.57
65718;BME280;52445;52.466;-1.016;2023-06-14T05:02:22;100391.72;;;12.74;62.13
65718;BME280;52445;52.466;-1.016;2023-06-14T05:04:50;100384.75;;;12.81;61.28
65718;BME280;52445;52.466;-1.016;2023-06-14T05:07:17;100386.44;;;12.88;61.77
65718;BME280;52445;52.466;-1.016;2023-06-14T05:09:44;100384.63;;;12.96;62.26
65718;BME280;52445;52.466;-1.016;2023-06-14T05:12:12;100381.97;;;13.04;61.99
65718;BME280;52445;52.466;-1.016;2023-06-14T05:14:38;100387.13;;;13.10;61.90
65718;BME280;52445;52.466;-1.016;2023-06-14T05:17:06;100392.25;;;13.20;62.16
65718;BME280;52445;52.466;-1.016;2023-06-14T05:19:33;100390.41;;;13.31;62.84
65718;BME280;52445;52.466;-1.016;2023-06-14T05:21:59;100387.75;;;13.42;61.99
65718;BME280;52445;52.466;-1.016;2023-06-14T05:24:26;100394.59;;;13.53;62.41
65718;BME280;52445;52.466;-1.016;2023-06-14T05:26:56;100390.16;;;13.62;62.48
65718;BME280;52445;52.466;-1.016;2023-06-14T05:29:22;100396.13;;;13.75;61.93
65718;BME280;52445;52.466;-1.016;2023-06-14T05:31:49;100395.13;;;13.87;62.05
65718;BME280;52445;52.466;-1.016;2023-06-14T05:34:16;100401.91;;;14.01;62.84
65718;BME280;52445;52.466;-1.016;2023-06-14T05:36:43;100400.06;;;14.12;63.17
65718;BME280;52445;52.466;-1.016;2023-06-14T05:39:09;100391.25;;;14.23;63.05
65718;BME280;52445;52.466;-1.016;2023-06-14T05:41:37;100397.09;;;14.40;62.90
65718;BME280;52445;52.466;-1.016;2023-06-14T05:44:03;100396.03;;;14.57;62.37
65718;BME280;52445;52.466;-1.016;2023-06-14T05:46:30;100394.97;;;14.69;62.83
65718;BME280;52445;52.466;-1.016;2023-06-14T05:48:57;100386.19;;;14.80;62.92
65718;BME280;52445;52.466;-1.016;2023-06-14T05:51:24;100390.38;;;14.92;62.35
65718;BME280;52445;52.466;-1.016;2023-06-14T05:53:52;100391.00;;;15.06;62.62
65718;BME280;52445;52.466;-1.016;2023-06-14T05:56:19;100395.13;;;15.20;62.49
65718;BME280;52445;52.466;-1.016;2023-06-14T05:58:46;100399.25;;;15.33;62.10
65718;BME280;52445;52.466;-1.016;2023-06-14T06:01:13;100403.38;;;15.47;62.78
65718;BME280;52445;52.466;-1.016;2023-06-14T06:03:40;100397.91;;;15.62;62.51
65718;BME280;52445;52.466;-1.016;2023-06-14T06:06:08;100391.44;;;15.82;62.23
65718;BME280;52445;52.466;-1.016;2023-06-14T06:08:34;100392.88;;;15.99;61.89
65718;BME280;52445;52.466;-1.016;2023-06-14T06:11:01;100390.72;;;16.19;61.67
65718;BME280;52445;52.466;-1.016;2023-06-14T06:13:28;100389.53;;;16.36;62.12
65718;BME280;52445;52.466;-1.016;2023-06-14T06:15:54;100389.13;;;16.55;61.49
65718;BME280;52445;52.466;-1.016;2023-06-14T06:18:22;100393.91;;;16.74;61.54
65718;BME280;52445;52.466;-1.016;2023-06-14T06:20:48;100409.25;;;16.89;61.83
65718;BME280;52445;52.466;-1.016;2023-06-14T06:23:15;100399.50;;;16.98;60.75
65718;BME280;52445;52.466;-1.016;2023-06-14T06:25:42;100408.72;;;17.14;61.73
65718;BME280;52445;52.466;-1.016;2023-06-14T06:28:09;100409.25;;;17.29;61.39
65718;BME280;52445;52.466;-1.016;2023-06-14T06:30:35;100412.22;;;17.50;61.63
65718;BME280;52445;52.466;-1.016;2023-06-14T06:33:03;100419.41;;;17.75;60.88
65718;BME280;52445;52.466;-1.016;2023-06-14T06:35:30;100420.63;;;17.94;59.97
65718;BME280;52445;52.466;-1.016;2023-06-14T06:37:57;100420.31;;;18.07;59.94
65718;BME280;52445;52.466;-1.016;2023-06-14T06:40:24;100417.28;;;18.22;60.34
65718;BME280;52445;52.466;-1.016;2023-06-14T06:42:51;100412.47;;;18.37;60.00
65718;BME280;52445;52.466;-1.016;2023-06-14T06:45:17;100409.34;;;18.54;59.09
65718;BME280;52445;52.466;-1.016;2023-06-14T06:47:44;100407.94;;;18.72;59.82
65718;BME280;52445;52.466;-1.016;2023-06-14T06:50:11;100418.94;;;18.84;58.58
65718;BME280;52445;52.466;-1.016;2023-06-14T06:52:38;100409.69;;;19.00;58.95
65718;BME280;52445;52.466;-1.016;2023-06-14T06:55:04;100416.03;;;19.22;58.80
65718;BME280;52445;52.466;-1.016;2023-06-14T06:57:31;100405.72;;;19.43;58.20
65718;BME280;52445;52.466;-1.016;2023-06-14T06:59:58;100404.94;;;19.66;58.13
65718;BME280;52445;52.466;-1.016;2023-06-14T07:02:25;100416.72;;;19.80;57.43
65718;BME280;52445;52.466;-1.016;2023-06-14T07:04:51;100422.53;;;19.88;57.26
65718;BME280;52445;52.466;-1.016;2023-06-14T07:07:18;100421.53;;;19.92;57.05
65718;BME280;52445;52.466;-1.016;2023-06-14T07:09:45;100416.72;;;20.05;57.29
65718;BME280;52445;52.466;-1.016;2023-06-14T07:12:12;100411.75;;;20.21;56.80
65718;BME280;52445;52.466;-1.016;2023-06-14T07:14:38;100420.03;;;20.34;56.54
65718;BME280;52445;52.466;-1.016;2023-06-14T07:17:05;100424.56;;;20.53;57.03
65718;BME280;52445;52.466;-1.016;2023-06-14T07:19:32;100420.03;;;20.80;55.72
65718;BME280;52445;52.466;-1.016;2023-06-14T07:21:59;100421.16;;;20.97;55.05
65718;BME280;52445;52.466;-1.016;2023-06-14T07:24:26;100425.78;;;21.13;55.10
65718;BME280;52445;52.466;-1.016;2023-06-14T07:26:55;100425.03;;;21.31;55.49
65718;BME280;52445;52.466;-1.016;2023-06-14T07:29:22;100426.69;;;21.55;54.60
65718;BME280;52445;52.466;-1.016;2023-06-14T07:31:49;100434.22;;;21.85;54.22
65718;BME280;52445;52.466;-1.016;2023-06-14T07:34:16;100441.97;;;22.09;53.43
65718;BME280;52445;52.466;-1.016;2023-06-14T07:36:42;100436.44;;;22.34;52.91
65718;BME280;52445;52.466;-1.016;2023-06-14T07:39:11;100440.84;;;22.53;52.93
65718;BME280;52445;52.466;-1.016;2023-06-14T07:41:37;100435.81;;;22.68;52.50
65718;BME280;52445;52.466;-1.016;2023-06-14T07:44:04;100441.00;;;22.89;52.01
65718;BME280;52445;52.466;-1.016;2023-06-14T07:46:31;100434.25;;;23.01;51.17
65718;BME280;52445;52.466;-1.016;2023-06-14T07:48:57;100443.53;;;23.09;50.66
65718;BME280;52445;52.466;-1.016;2023-06-14T07:51:24;100441.28;;;23.19;50.69
65718;BME280;52445;52.466;-1.016;2023-06-14T07:53:51;100437.31;;;23.28;50.54
65718;BME280;52445;52.466;-1.016;2023-06-14T07:56:18;100445.59;;;23.40;50.14
65718;BME280;52445;52.466;-1.016;2023-06-14T07:58:44;100446.22;;;23.45;50.22
65718;BME280;52445;52.466;-1.016;2023-06-14T08:01:11;100448.22;;;23.57;49.89
65718;BME280;52445;52.466;-1.016;2023-06-14T08:03:38;100435.31;;;23.69;49.45
65718;BME280;52445;52.466;-1.016;2023-06-14T08:06:06;100442.44;;;23.84;49.40
65718;BME280;52445;52.466;-1.016;2023-06-14T08:08:33;100439.00;;;24.00;48.66
65718;BME280;52445;52.466;-1.016;2023-06-14T08:11:00;100433.38;;;24.06;48.62
65718;BME280;52445;52.466;-1.016;2023-06-14T08:13:27;100440.75;;;24.17;48.64
65718;BME280;52445;52.466;-1.016;2023-06-14T08:15:54;100446.09;;;24.33;48.54
65718;BME280;52445;52.466;-1.016;2023-06-14T08:18:21;100445.25;;;24.49;48.30
65718;BME280;52445;52.466;-1.016;2023-06-14T08:20:48;100442.50;;;24.67;47.71
65718;BME280;52445;52.466;-1.016;2023-06-14T08:23:16;100440.03;;;24.80;48.05
65718;BME280;52445;52.466;-1.016;2023-06-14T08:25:45;100443.03;;;25.06;47.52
65718;BME280;52445;52.466;-1.016;2023-06-14T08:28:12;100443.16;;;25.19;47.03
65718;BME280;52445;52.466;-1.016;2023-06-14T08:30:38;100440.06;;;25.26;47.05
65718;BME280;52445;52.466;-1.016;2023-06-14T08:33:05;100441.88;;;25.40;46.85
65718;BME280;52445;52.466;-1.016;2023-06-14T08:35:41;100448.59;;;25.62;46.60
65718;BME280;52445;52.466;-1.016;2023-06-14T08:38:10;100455.28;;;25.84;46.75
65718;BME280;52445;52.466;-1.016;2023-06-14T08:40:38;100445.97;;;26.06;46.44
65718;BME280;52445;52.466;-1.016;2023-06-14T08:43:06;100449.78;;;26.16;45.61
65718;BME280;52445;52.466;-1.016;2023-06-14T08:45:33;100450.91;;;26.27;45.12
65718;BME280;52445;52.466;-1.016;2023-06-14T08:48:01;100451.00;;;26.40;45.12
65718;BME280;52445;52.466;-1.016;2023-06-14T08:50:28;100445.75;;;26.53;45.92
65718;BME280;52445;52.466;-1.016;2023-06-14T08:53:00;100448.19;;;26.71;45.18
65718;BME280;52445;52.466;-1.016;2023-06-14T08:55:29;100451.47;;;26.89;44.95
65718;BME280;52445;52.466;-1.016;2023-06-14T08:58:01;100443.00;;;26.97;44.34
65718;BME280;52445;52.466;-1.016;2023-06-14T09:00:30;100441.09;;;26.99;43.78
65718;BME280;52445;52.466;-1.016;2023-06-14T09:02:57;100446.41;;;26.99;44.14
65718;BME280;52445;52.466;-1.016;2023-06-14T09:05:25;100448.81;;;27.16;43.49
65718;BME280;52445;52.466;-1.016;2023-06-14T09:07:53;100451.19;;;27.34;43.27
65718;BME280;52445;52.466;-1.016;2023-06-14T09:10:24;100451.63;;;27.54;43.55
65718;BME280;52445;52.466;-1.016;2023-06-14T09:12:53;100448.56;;;27.60;42.42
65718;BME280;52445;52.466;-1.016;2023-06-14T09:15:20;100449.97;;;27.66;42.99
65718;BME280;52445;52.466;-1.016;2023-06-14T09:17:47;100455.94;;;27.69;42.48
65718;BME280;52445;52.466;-1.016;2023-06-14T09:20:14;100455.72;;;27.73;42.62
65718;BME280;52445;52.466;-1.016;2023-06-14T09:22:46;100458.69;;;27.68;41.75
65718;BME280;52445;52.466;-1.016;2023-06-14T09:25:13;100456.13;;;27.66;42.47
65718;BME280;52445;52.466;-1.016;2023-06-14T09:27:59;100453.59;;;27.78;43.48
65718;BME280;52445;52.466;-1.016;2023-06-14T09:30:26;100456.91;;;27.94;41.87
65718;BME280;52445;52.466;-1.016;2023-06-14T09:32:52;100463.06;;;28.08;42.81
65718;BME280;52445;52.466;-1.016;2023-06-14T09:35:20;100456.16;;;28.31;42.69
65718;BME280;52445;52.466;-1.016;2023-06-14T09:37:47;100465.25;;;28.40;41.89
65718;BME280;52445;52.466;-1.016;2023-06-14T09:40:20;100456.34;;;28.41;40.22
65718;BME280;52445;52.466;-1.016;2023-06-14T09:42:47;100456.94;;;28.45;40.79
65718;BME280;52445;52.466;-1.016;2023-06-14T09:45:14;100454.03;;;28.61;41.27
65718;BME280;52445;52.466;-1.016;2023-06-14T09:47:46;100455.03;;;28.71;40.69
65718;BME280;52445;52.466;-1.016;2023-06-14T09:50:32;100448.78;;;28.72;39.53
65718;BME280;52445;52.466;-1.016;2023-06-14T09:53:03;100454.31;;;28.69;40.52
65718;BME280;52445;52.466;-1.016;2023-06-14T09:55:34;100445.47;;;28.69;39.35
65718;BME280;52445;52.466;-1.016;2023-06-14T09:58:05;100450.47;;;28.73;40.40
65718;BME280;52445;52.466;-1.016;2023-06-14T10:00:34;100456.56;;;28.87;40.95
65718;BME280;52445;52.466;-1.016;2023-06-14T10:03:07;100459.31;;;28.98;39.82
65718;BME280;52445;52.466;-1.016;2023-06-14T10:05:39;100454.16;;;29.08;40.68
65718;BME280;52445;52.466;-1.016;2023-06-14T10:08:09;100454.78;;;29.12;39.42
65718;BME280;52445;52.466;-1.016;2023-06-14T10:10:38;100460.56;;;29.06;39.04
65718;BME280;52445;52.466;-1.016;2023-06-14T10:13:07;100449.91;;;29.06;38.67
65718;BME280;52445;52.466;-1.016;2023-06-14T10:18:35;100452.06;;;29.01;38.32
65718;BME280;52445;52.466;-1.016;2023-06-14T10:21:26;100448.09;;;29.06;39.16
65718;BME280;52445;52.466;-1.016;2023-06-14T10:23:56;100452.63;;;29.17;39.46
65718;BME280;52445;52.466;-1.016;2023-06-14T10:26:24;100441.50;;;29.23;40.47
65718;BME280;52445;52.466;-1.016;2023-06-14T10:29:01;100444.13;;;29.48;39.26
65718;BME280;52445;52.466;-1.016;2023-06-14T10:31:50;100441.47;;;29.59;38.72
65718;BME280;52445;52.466;-1.016;2023-06-14T10:34:26;100448.16;;;29.54;37.46
65718;BME280;52445;52.466;-1.016;2023-06-14T10:39:41;100450.50;;;29.45;37.78
65718;BME280;52445;52.466;-1.016;2023-06-14T10:42:09;100455.19;;;29.55;37.62
65718;BME280;52445;52.466;-1.016;2023-06-14T10:47:34;100453.50;;;29.54;37.58
65718;BME280;52445;52.466;-1.016;2023-06-14T10:52:43;100445.78;;;29.85;37.48
65718;BME280;52445;52.466;-1.016;2023-06-14T11:00:28;100457.16;;;29.98;36.49
65718;BME280;52445;52.466;-1.016;2023-06-14T11:11:06;100447.59;;;29.96;37.08
65718;BME280;52445;52.466;-1.016;2023-06-14T11:13:34;100440.91;;;30.01;36.51
65718;BME280;52445;52.466;-1.016;2023-06-14T11:16:10;100437.03;;;30.06;36.29
65718;BME280;52445;52.466;-1.016;2023-06-14T11:18:38;100437.28;;;30.14;36.11
65718;BME280;52445;52.466;-1.016;2023-06-14T11:21:04;100445.31;;;30.14;37.41
65718;BME280;52445;52.466;-1.016;2023-06-14T11:23:32;100440.41;;;30.08;35.86
65718;BME280;52445;52.466;-1.016;2023-06-14T11:25:58;100435.47;;;30.14;36.95
65718;BME280;52445;52.466;-1.016;2023-06-14T11:28:35;100440.94;;;30.24;37.58
65718;BME280;52445;52.466;-1.016;2023-06-14T11:31:03;100430.97;;;30.26;36.82
65718;BME280;52445;52.466;-1.016;2023-06-14T11:33:30;100430.25;;;30.24;36.34
65718;BME280;52445;52.466;-1.016;2023-06-14T11:35:57;100433.38;;;30.30;36.10
65718;BME280;52445;52.466;-1.016;2023-06-14T11:38:25;100438.50;;;30.33;36.90
65718;BME280;52445;52.466;-1.016;2023-06-14T11:40:52;100439.94;;;30.37;36.47
65718;BME280;52445;52.466;-1.016;2023-06-14T11:43:19;100446.97;;;30.38;36.80
65718;BME280;52445;52.466;-1.016;2023-06-14T11:45:48;100436.28;;;30.38;36.42
65718;BME280;52445;52.466;-1.016;2023-06-14T11:48:37;100435.81;;;30.33;35.94
65718;BME280;52445;52.466;-1.016;2023-06-14T11:51:04;100434.59;;;30.25;36.10
65718;BME280;52445;52.466;-1.016;2023-06-14T11:53:31;100424.03;;;30.24;36.39
65718;BME280;52445;52.466;-1.016;2023-06-14T11:55:58;100431.94;;;30.25;37.14
65718;BME280;52445;52.466;-1.016;2023-06-14T11:58:26;100429.03;;;30.17;35.85
65718;BME280;52445;52.466;-1.016;2023-06-14T12:00:53;100428.06;;;30.18;36.29
65718;BME280;52445;52.466;-1.016;2023-06-14T12:03:24;100430.97;;;30.26;36.26
65718;BME280;52445;52.466;-1.016;2023-06-14T12:06:03;100430.00;;;30.27;36.78
65718;BME280;52445;52.466;-1.016;2023-06-14T12:08:35;100431.47;;;30.32;37.43
65718;BME280;52445;52.466;-1.016;2023-06-14T12:11:06;100425.16;;;30.21;36.80
65718;BME280;52445;52.466;-1.016;2023-06-14T12:13:34;100430.72;;;30.18;37.06
65718;BME280;52445;52.466;-1.016;2023-06-14T12:16:04;100427.69;;;30.23;36.61
65718;BME280;52445;52.466;-1.016;2023-06-14T12:18:33;100424.28;;;30.21;36.80
65718;BME280;52445;52.466;-1.016;2023-06-14T12:21:01;100426.97;;;30.21;36.73
65718;BME280;52445;52.466;-1.016;2023-06-14T12:26:21;100425.25;;;30.31;37.01
65718;BME280;52445;52.466;-1.016;2023-06-14T12:28:48;100422.22;;;30.36;37.45
65718;BME280;52445;52.466;-1.016;2023-06-14T12:31:16;100417.13;;;30.33;36.68
65718;BME280;52445;52.466;-1.016;2023-06-14T12:33:43;100430.13;;;30.37;37.12
65718;BME280;52445;52.466;-1.016;2023-06-14T12:36:12;100419.88;;;30.43;36.54
65718;BME280;52445;52.466;-1.016;2023-06-14T12:38:39;100422.66;;;30.52;37.25
65718;BME280;52445;52.466;-1.016;2023-06-14T12:41:05;100418.75;;;30.57;37.45
65718;BME280;52445;52.466;-1.016;2023-06-14T12:43:32;100417.97;;;30.66;37.15
65718;BME280;52445;52.466;-1.016;2023-06-14T12:45:59;100422.63;;;30.64;36.93
65718;BME280;52445;52.466;-1.016;2023-06-14T12:48:27;100425.53;;;30.61;37.03
65718;BME280;52445;52.466;-1.016;2023-06-14T12:50:53;100411.47;;;30.59;37.19
65718;BME280;52445;52.466;-1.016;2023-06-14T12:53:20;100419.94;;;30.64;36.87
65718;BME280;52445;52.466;-1.016;2023-06-14T12:55:47;100419.94;;;30.64;36.88
65718;BME280;52445;52.466;-1.016;2023-06-14T12:58:14;100416.53;;;30.62;36.49
65718;BME280;52445;52.466;-1.016;2023-06-14T13:00:41;100421.66;;;30.65;36.72
65718;BME280;52445;52.466;-1.016;2023-06-14T13:03:07;100420.94;;;30.74;37.17
65718;BME280;52445;52.466;-1.016;2023-06-14T13:05:34;100423.31;;;30.77;36.56
65718;BME280;52445;52.466;-1.016;2023-06-14T13:08:01;100415.81;;;30.71;36.73
65718;BME280;52445;52.466;-1.016;2023-06-14T13:10:28;100412.38;;;30.69;36.63
65718;BME280;52445;52.466;-1.016;2023-06-14T13:12:55;100414.25;;;30.69;37.19
65718;BME280;52445;52.466;-1.016;2023-06-14T13:15:24;100416.91;;;30.69;36.86
65718;BME280;52445;52.466;-1.016;2023-06-14T13:17:51;100414.47;;;30.77;37.36
65718;BME280;52445;52.466;-1.016;2023-06-14T13:20:17;100410.03;;;30.87;36.93